sensor_id;sensor_type;location;lat;lon;timestamp;pressure;altitude;pressure_sealevel;temperature;humidity
3544;BME280;1786;52.870;9.578;2023-06-24T00:01:16;101472.63;;;27.42;48.08
3544;BME280;1786;52.870;9.578;2023-06-24T00:03:42;101465.84;;;27.38;48.05
3544;BME280;1786;52.870;9.578;2023-06-24T00:06:13;101468.28;;;27.33;47.93
3544;BME280;1786;52.870;9.578;2023-06-24T00:08:45;101471.81;;;27.18;47.80
3544;BME280;1786;52.870;9.578;2023-06-24T00:11:12;101474.53;;;27.18;48.23
3544;BME280;1786;52.870;9.578;2023-06-24T00:13:40;101481.22;;;27.08;48.26
3544;BME280;1786;52.870;9.578;2023-06-24T00:16:07;101477.94;;;26.97;48.46
3544;BME280;1786;52.870;9.578;2023-06-24T00:18:35;101472.34;;;26.99;48.41
3544;BME280;1786;52.870;9.578;2023-06-24T00:21:03;101472.03;;;26.94;48.42
3544;BME280;1786;52.870;9.578;2023-06-24T00:23:30;101469.59;;;26.84;48.63
3544;BME280;1786;52.870;9.578;2023-06-24T00:26:01;101472.63;;;26.81;48.63
3544;BME280;1786;52.870;9.578;2023-06-24T00:28:27;101478.63;;;26.76;48.87
3544;BME280;1786;52.870;9.578;2023-06-24T00:30:54;101474.22;;;26.75;48.52
3544;BME280;1786;52.870;9.578;2023-06-24T00:33:21;101469.69;;;26.68;48.90
3544;BME280;1786;52.870;9.578;2023-06-24T00:35:49;101478.28;;;26.57;48.53
3544;BME280;1786;52.870;9.578;2023-06-24T00:38:16;101476.44;;;26.49;49.19
3544;BME280;1786;52.870;9.578;2023-06-24T00:40:42;101475.56;;;26.48;49.10
3544;BME280;1786;52.870;9.578;2023-06-24T00:43:09;101477.50;;;26.40;49.18
3544;BME280;1786;52.870;9.578;2023-06-24T00:45:36;101474.63;;;26.41;48.77
3544;BME280;1786;52.870;9.578;2023-06-24T00:48:03;101480.22;;;26.40;48.91
3544;BME280;1786;52.870;9.578;2023-06-24T00:50:31;101484.66;;;26.32;49.19
3544;BME280;1786;52.870;9.578;2023-06-24T00:52:58;101484.53;;;26.26;49.54
3544;BME280;1786;52.870;9.578;2023-06-24T00:55:25;101480.63;;;26.28;49.18
3544;BME280;1786;52.870;9.578;2023-06-24T00:57:52;101475.97;;;26.14;49.45
3544;BME280;1786;52.870;9.578;2023-06-24T01:00:21;101472.13;;;26.00;49.97
3544;BME280;1786;52.870;9.578;2023-06-24T01:02:51;101478.00;;;26.12;50.17
3544;BME280;1786;52.870;9.578;2023-06-24T01:05:18;101483.50;;;25.96;50.21
3544;BME280;1786;52.870;9.578;2023-06-24T01:07:51;101472.63;;;26.04;50.40
3544;BME280;1786;52.870;9.578;2023-06-24T01:10:23;101482.47;;;25.97;50.17
3544;BME280;1786;52.870;9.578;2023-06-24T01:12:50;101486.19;;;26.04;50.00
3544;BME280;1786;52.870;9.578;2023-06-24T01:15:18;101488.38;;;26.00;50.30
3544;BME280;1786;52.870;9.578;2023-06-24T01:20:36;101481.81;;;25.95;50.42
3544;BME280;1786;52.870;9.578;2023-06-24T01:25:59;101487.25;;;25.86;50.63
3544;BME280;1786;52.870;9.578;2023-06-24T01:29:55;101488.66;;;25.66;51.21
3544;BME280;1786;52.870;9.578;2023-06-24T01:31:59;101490.38;;;25.59;51.43
3544;BME280;1786;52.870;9.578;2023-06-24T01:34:47;101483.94;;;25.68;51.17
3544;BME280;1786;52.870;9.578;2023-06-24T01:37:18;101477.66;;;25.67;51.52
3544;BME280;1786;52.870;9.578;2023-06-24T01:39:56;101479.47;;;25.75;50.95
3544;BME280;1786;52.870;9.578;2023-06-24T01:42:24;101485.59;;;25.69;50.83
3544;BME280;1786;52.870;9.578;2023-06-24T01:44:51;101483.25;;;25.66;51.03
3544;BME280;1786;52.870;9.578;2023-06-24T01:47:21;101485.13;;;25.65;51.04
3544;BME280;1786;52.870;9.578;2023-06-24T01:49:52;101490.34;;;25.67;50.70
3544;BME280;1786;52.870;9.578;2023-06-24T01:52:23;101490.53;;;25.65;50.95
3544;BME280;1786;52.870;9.578;2023-06-24T01:54:51;101491.25;;;25.51;50.76
3544;BME280;1786;52.870;9.578;2023-06-24T01:57:20;101496.47;;;25.53;50.80
3544;BME280;1786;52.870;9.578;2023-06-24T01:59:48;101486.50;;;25.53;50.97
3544;BME280;1786;52.870;9.578;2023-06-24T02:02:15;101495.13;;;25.57;50.58
3544;BME280;1786;52.870;9.578;2023-06-24T02:04:43;101490.06;;;25.54;50.61
3544;BME280;1786;52.870;9.578;2023-06-24T02:07:10;101494.44;;;25.55;50.75
3544;BME280;1786;52.870;9.578;2023-06-24T02:09:38;101492.75;;;25.54;50.87
3544;BME280;1786;52.870;9.578;2023-06-24T02:12:06;101494.78;;;25.52;50.75
3544;BME280;1786;52.870;9.578;2023-06-24T02:14:36;101502.22;;;25.50;50.90
3544;BME280;1786;52.870;9.578;2023-06-24T02:17:04;101500.56;;;25.48;50.83
3544;BME280;1786;52.870;9.578;2023-06-24T02:19:33;101503.63;;;25.45;50.79
3544;BME280;1786;52.870;9.578;2023-06-24T02:22:02;101508.34;;;25.43;50.80
3544;BME280;1786;52.870;9.578;2023-06-24T02:24:31;101501.41;;;25.41;50.25
3544;BME280;1786;52.870;9.578;2023-06-24T02:27:01;101502.44;;;25.32;50.78
3544;BME280;1786;52.870;9.578;2023-06-24T02:29:28;101504.31;;;25.31;50.41
3544;BME280;1786;52.870;9.578;2023-06-24T02:31:56;101504.63;;;25.36;50.55
3544;BME280;1786;52.870;9.578;2023-06-24T02:34:24;101505.50;;;25.29;50.85
3544;BME280;1786;52.870;9.578;2023-06-24T02:36:51;101504.81;;;25.26;50.76
3544;BME280;1786;52.870;9.578;2023-06-24T02:39:19;101501.09;;;25.19;51.01
3544;BME280;1786;52.870;9.578;2023-06-24T02:41:46;101500.56;;;25.16;51.09
3544;BME280;1786;52.870;9.578;2023-06-24T02:44:14;101499.91;;;25.14;50.85
3544;BME280;1786;52.870;9.578;2023-06-24T02:46:42;101503.63;;;25.13;51.19
3544;BME280;1786;52.870;9.578;2023-06-24T02:49:12;101505.97;;;25.16;50.75
3544;BME280;1786;52.870;9.578;2023-06-24T02:51:41;101505.47;;;25.04;51.41
3544;BME280;1786;52.870;9.578;2023-06-24T02:54:08;101511.41;;;25.08;51.28
3544;BME280;1786;52.870;9.578;2023-06-24T02:57:06;101512.59;;;25.05;51.10
3544;BME280;1786;52.870;9.578;2023-06-24T02:59:54;101511.22;;;25.09;51.38
3544;BME280;1786;52.870;9.578;2023-06-24T03:02:25;101514.13;;;25.08;51.13
3544;BME280;1786;52.870;9.578;2023-06-24T03:04:53;101517.47;;;25.10;51.35
3544;BME280;1786;52.870;9.578;2023-06-24T03:07:20;101519.19;;;25.11;51.18
3544;BME280;1786;52.870;9.578;2023-06-24T03:09:47;101515.44;;;25.12;51.01
3544;BME280;1786;52.870;9.578;2023-06-24T03:12:14;101513.41;;;25.14;51.16
3544;BME280;1786;52.870;9.578;2023-06-24T03:14:42;101524.91;;;25.16;51.00
3544;BME280;1786;52.870;9.578;2023-06-24T03:17:09;101529.66;;;25.14;50.77
3544;BME280;1786;52.870;9.578;2023-06-24T03:19:38;101518.16;;;25.20;50.89
3544;BME280;1786;52.870;9.578;2023-06-24T03:22:05;101526.97;;;25.22;50.79
3544;BME280;1786;52.870;9.578;2023-06-24T03:24:32;101527.63;;;25.24;51.09
3544;BME280;1786;52.870;9.578;2023-06-24T03:26:59;101531.03;;;25.26;51.58
3544;BME280;1786;52.870;9.578;2023-06-24T03:29:34;101521.41;;;25.23;51.87
3544;BME280;1786;52.870;9.578;2023-06-24T03:32:11;101520.88;;;25.28;51.39
3544;BME280;1786;52.870;9.578;2023-06-24T03:34:37;101519.53;;;25.40;51.26
3544;BME280;1786;52.870;9.578;2023-06-24T03:37:04;101526.78;;;25.40;51.62
3544;BME280;1786;52.870;9.578;2023-06-24T03:39:33;101522.69;;;25.52;51.35
3544;BME280;1786;52.870;9.578;2023-06-24T03:42:01;101516.97;;;25.55;51.04
3544;BME280;1786;52.870;9.578;2023-06-24T03:44:27;101526.25;;;25.61;51.31
3544;BME280;1786;52.870;9.578;2023-06-24T03:46:54;101521.19;;;25.58;50.83
3544;BME280;1786;52.870;9.578;2023-06-24T03:49:21;101520.31;;;25.65;50.72
3544;BME280;1786;52.870;9.578;2023-06-24T03:51:48;101524.19;;;25.71;50.64
3544;BME280;1786;52.870;9.578;2023-06-24T03:54:14;101528.56;;;25.72;50.48
3544;BME280;1786;52.870;9.578;2023-06-24T03:56:41;101522.78;;;25.75;50.62
3544;BME280;1786;52.870;9.578;2023-06-24T03:59:07;101529.88;;;25.84;50.13
3544;BME280;1786;52.870;9.578;2023-06-24T04:01:34;101536.66;;;25.97;50.23
3544;BME280;1786;52.870;9.578;2023-06-24T04:04:03;101538.00;;;26.01;49.99
3544;BME280;1786;52.870;9.578;2023-06-24T04:06:30;101544.72;;;26.05;49.95
3544;BME280;1786;52.870;9.578;2023-06-24T04:08:56;101542.66;;;26.15;50.44
3544;BME280;1786;52.870;9.578;2023-06-24T04:11:23;101538.06;;;26.24;50.16
3544;BME280;1786;52.870;9.578;2023-06-24T04:13:50;101548.84;;;26.32;50.36
3544;BME280;1786;52.870;9.578;2023-06-24T04:16:16;101542.91;;;26.37;50.35
3544;BME280;1786;52.870;9.578;2023-06-24T04:18:43;101542.19;;;26.43;50.18
3544;BME280;1786;52.870;9.578;2023-06-24T04:21:10;101545.69;;;26.20;51.01
3544;BME280;1786;52.870;9.578;2023-06-24T04:23:36;101544.09;;;26.34;50.88
3544;BME280;1786;52.870;9.578;2023-06-24T04:26:03;101544.88;;;26.11;51.64
3544;BME280;1786;52.870;9.578;2023-06-24T04:28:30;101545.88;;;26.50;51.44
3544;BME280;1786;52.870;9.578;2023-06-24T04:30:57;101541.63;;;26.79;50.80
3544;BME280;1786;52.870;9.578;2023-06-24T04:33:25;101547.06;;;26.79;50.99
3544;BME280;1786;52.870;9.578;2023-06-24T04:35:52;101546.53;;;26.83;51.17
3544;BME280;1786;52.870;9.578;2023-06-24T04:38:20;101549.06;;;27.08;50.86
3544;BME280;1786;52.870;9.578;2023-06-24T04:40:47;101559.63;;;27.26;50.45
3544;BME280;1786;52.870;9.578;2023-06-24T04:43:14;101553.41;;;26.94;51.35
3544;BME280;1786;52.870;9.578;2023-06-24T04:45:41;101555.41;;;26.77;51.62
3544;BME280;1786;52.870;9.578;2023-06-24T04:48:07;101548.81;;;27.17;51.01
3544;BME280;1786;52.870;9.578;2023-06-24T04:50:34;101548.97;;;27.16;51.31
3544;BME280;1786;52.870;9.578;2023-06-24T04:53:01;101553.25;;;27.33;51.41
3544;BME280;1786;52.870;9.578;2023-06-24T04:55:28;101555.63;;;27.51;50.85
3544;BME280;1786;52.870;9.578;2023-06-24T04:57:58;101561.09;;;27.81;50.42
3544;BME280;1786;52.870;9.578;2023-06-24T05:00:24;101562.09;;;27.50;50.91
3544;BME280;1786;52.870;9.578;2023-06-24T05:02:51;101564.50;;;27.30;51.67
3544;BME280;1786;52.870;9.578;2023-06-24T05:05:18;101564.56;;;27.60;51.00
3544;BME280;1786;52.870;9.578;2023-06-24T05:07:47;101563.75;;;28.04;50.19
3544;BME280;1786;52.870;9.578;2023-06-24T05:10:14;101559.81;;;27.92;50.79
3544;BME280;1786;52.870;9.578;2023-06-24T05:12:41;101563.47;;;28.65;49.97
3544;BME280;1786;52.870;9.578;2023-06-24T05:15:08;101568.75;;;29.87;48.67
3544;BME280;1786;52.870;9.578;2023-06-24T05:17:34;101575.28;;;31.36;45.84
3544;BME280;1786;52.870;9.578;2023-06-24T05:20:01;101579.50;;;32.82;42.93
3544;BME280;1786;52.870;9.578;2023-06-24T05:22:29;101596.13;;;34.42;41.21
3544;BME280;1786;52.870;9.578;2023-06-24T05:24:57;101593.06;;;36.05;39.41
3544;BME280;1786;52.870;9.578;2023-06-24T05:27:23;101599.25;;;37.27;36.98
3544;BME280;1786;52.870;9.578;2023-06-24T05:29:51;101615.06;;;38.26;36.49
3544;BME280;1786;52.870;9.578;2023-06-24T05:32:17;101611.75;;;39.33;35.20
3544;BME280;1786;52.870;9.578;2023-06-24T05:34:46;101612.28;;;40.20;33.46
3544;BME280;1786;52.870;9.578;2023-06-24T05:37:13;101614.44;;;40.86;32.95
3544;BME280;1786;52.870;9.578;2023-06-24T05:39:41;101612.50;;;41.38;32.35
3544;BME280;1786;52.870;9.578;2023-06-24T05:42:08;101606.31;;;41.87;31.30
3544;BME280;1786;52.870;9.578;2023-06-24T05:44:34;101608.31;;;42.41;31.14
3544;BME280;1786;52.870;9.578;2023-06-24T05:47:01;101610.69;;;43.03;30.74
3544;BME280;1786;52.870;9.578;2023-06-24T05:49:28;101614.88;;;43.63;29.40
3544;BME280;1786;52.870;9.578;2023-06-24T05:51:56;101604.69;;;43.78;29.80
3544;BME280;1786;52.870;9.578;2023-06-24T05:54:24;101608.38;;;44.59;28.81
3544;BME280;1786;52.870;9.578;2023-06-24T05:56:51;101613.50;;;44.71;28.84
3544;BME280;1786;52.870;9.578;2023-06-24T05:59:17;101621.88;;;45.23;28.38
3544;BME280;1786;52.870;9.578;2023-06-24T06:01:44;101626.81;;;45.26;27.59
3544;BME280;1786;52.870;9.578;2023-06-24T06:04:11;101630.72;;;45.71;27.57
3544;BME280;1786;52.870;9.578;2023-06-24T06:06:37;101618.91;;;46.44;27.17
3544;BME280;1786;52.870;9.578;2023-06-24T06:09:05;101619.84;;;46.75;27.04
3544;BME280;1786;52.870;9.578;2023-06-24T06:11:32;101614.88;;;46.72;26.51
3544;BME280;1786;52.870;9.578;2023-06-24T06:13:58;101620.47;;;46.95;26.55
3544;BME280;1786;52.870;9.578;2023-06-24T06:16:25;101611.59;;;46.56;26.26
3544;BME280;1786;52.870;9.578;2023-06-24T06:18:51;101607.69;;;46.07;26.74
3544;BME280;1786;52.870;9.578;2023-06-24T06:21:18;101605.50;;;46.04;27.31
3544;BME280;1786;52.870;9.578;2023-06-24T06:23:45;101601.25;;;45.79;27.67
3544;BME280;1786;52.870;9.578;2023-06-24T06:26:12;101600.13;;;46.08;26.90
3544;BME280;1786;52.870;9.578;2023-06-24T06:28:38;101602.56;;;46.73;26.38
3544;BME280;1786;52.870;9.578;2023-06-24T06:31:05;101603.81;;;46.17;27.02
3544;BME280;1786;52.870;9.578;2023-06-24T06:33:32;101600.41;;;45.37;26.89
3544;BME280;1786;52.870;9.578;2023-06-24T06:35:59;101601.41;;;44.76;27.84
3544;BME280;1786;52.870;9.578;2023-06-24T06:38:26;101596.00;;;44.65;27.83
3544;BME280;1786;52.870;9.578;2023-06-24T06:40:53;101598.59;;;44.76;27.74
3544;BME280;1786;52.870;9.578;2023-06-24T06:43:19;101600.44;;;45.18;27.50
3544;BME280;1786;52.870;9.578;2023-06-24T06:45:47;101602.69;;;44.83;27.61
3544;BME280;1786;52.870;9.578;2023-06-24T06:48:14;101601.38;;;44.00;27.63
3544;BME280;1786;52.870;9.578;2023-06-24T06:50:41;101605.84;;;42.79;29.67
3544;BME280;1786;52.870;9.578;2023-06-24T06:53:07;101600.75;;;41.97;30.79
3544;BME280;1786;52.870;9.578;2023-06-24T06:55:36;101612.19;;;41.70;30.76
3544;BME280;1786;52.870;9.578;2023-06-24T06:58:04;101610.06;;;42.22;30.89
3544;BME280;1786;52.870;9.578;2023-06-24T07:00:31;101614.06;;;42.99;29.31
3544;BME280;1786;52.870;9.578;2023-06-24T07:02:58;101617.88;;;43.91;28.22
3544;BME280;1786;52.870;9.578;2023-06-24T07:05:24;101623.66;;;44.43;27.18
3544;BME280;1786;52.870;9.578;2023-06-24T07:07:51;101615.13;;;44.53;28.14
3544;BME280;1786;52.870;9.578;2023-06-24T07:10:20;101616.19;;;44.76;27.94
3544;BME280;1786;52.870;9.578;2023-06-24T07:12:46;101622.09;;;45.26;27.42
3544;BME280;1786;52.870;9.578;2023-06-24T07:15:13;101619.13;;;45.37;27.50
3544;BME280;1786;52.870;9.578;2023-06-24T07:17:40;101629.44;;;45.36;26.43
3544;BME280;1786;52.870;9.578;2023-06-24T07:20:08;101625.44;;;45.56;26.69
3544;BME280;1786;52.870;9.578;2023-06-24T07:22:35;101630.22;;;44.90;26.62
3544;BME280;1786;52.870;9.578;2023-06-24T07:25:01;101626.72;;;44.98;27.49
3544;BME280;1786;52.870;9.578;2023-06-24T07:27:28;101631.38;;;45.82;26.69
3544;BME280;1786;52.870;9.578;2023-06-24T07:29:56;101622.06;;;45.73;25.77
3544;BME280;1786;52.870;9.578;2023-06-24T07:32:22;101622.31;;;45.11;27.08
3544;BME280;1786;52.870;9.578;2023-06-24T07:34:49;101622.22;;;45.16;27.50
3544;BME280;1786;52.870;9.578;2023-06-24T07:37:16;101636.53;;;45.75;27.04
3544;BME280;1786;52.870;9.578;2023-06-24T07:39:51;101640.72;;;45.45;27.31
3544;BME280;1786;52.870;9.578;2023-06-24T07:42:17;101637.38;;;45.89;26.50
3544;BME280;1786;52.870;9.578;2023-06-24T07:44:46;101636.03;;;45.73;26.97
3544;BME280;1786;52.870;9.578;2023-06-24T07:47:12;101630.44;;;45.73;26.00
3544;BME280;1786;52.870;9.578;2023-06-24T07:49:39;101622.72;;;45.51;26.01
3544;BME280;1786;52.870;9.578;2023-06-24T07:52:06;101618.09;;;45.13;27.75
3544;BME280;1786;52.870;9.578;2023-06-24T07:54:33;101623.66;;;45.13;26.71
3544;BME280;1786;52.870;9.578;2023-06-24T07:57:01;101618.31;;;44.46;26.70
3544;BME280;1786;52.870;9.578;2023-06-24T07:59:27;101627.72;;;44.50;27.67
3544;BME280;1786;52.870;9.578;2023-06-24T08:01:54;101632.63;;;44.40;27.38
3544;BME280;1786;52.870;9.578;2023-06-24T08:04:21;101620.31;;;44.22;27.70
3544;BME280;1786;52.870;9.578;2023-06-24T08:06:47;101624.72;;;44.04;27.64
3544;BME280;1786;52.870;9.578;2023-06-24T08:09:16;101622.38;;;43.87;28.09
3544;BME280;1786;52.870;9.578;2023-06-24T08:11:43;101623.91;;;44.03;28.21
3544;BME280;1786;52.870;9.578;2023-06-24T08:14:10;101628.31;;;44.47;28.03
3544;BME280;1786;52.870;9.578;2023-06-24T08:16:37;101625.28;;;43.53;28.73
3544;BME280;1786;52.870;9.578;2023-06-24T08:19:03;101621.69;;;43.76;28.51
3544;BME280;1786;52.870;9.578;2023-06-24T08:21:30;101628.75;;;43.69;28.68
3544;BME280;1786;52.870;9.578;2023-06-24T08:23:57;101616.94;;;43.77;28.54
3544;BME280;1786;52.870;9.578;2023-06-24T08:26:24;101625.59;;;43.46;28.50
3544;BME280;1786;52.870;9.578;2023-06-24T08:28:50;101617.47;;;43.50;29.00
3544;BME280;1786;52.870;9.578;2023-06-24T08:31:17;101625.97;;;43.93;28.64
3544;BME280;1786;52.870;9.578;2023-06-24T08:33:44;101625.00;;;44.02;28.19
3544;BME280;1786;52.870;9.578;2023-06-24T08:36:12;101623.22;;;43.88;27.71
3544;BME280;1786;52.870;9.578;2023-06-24T08:38:39;101614.75;;;43.74;28.53
3544;BME280;1786;52.870;9.578;2023-06-24T08:41:05;101613.22;;;43.86;28.59
3544;BME280;1786;52.870;9.578;2023-06-24T08:43:32;101609.75;;;43.95;28.43
3544;BME280;1786;52.870;9.578;2023-06-24T08:45:59;101600.28;;;43.96;27.17
3544;BME280;1786;52.870;9.578;2023-06-24T08:48:26;101609.09;;;43.60;27.93
3544;BME280;1786;52.870;9.578;2023-06-24T08:50:56;101609.59;;;43.62;28.00
3544;BME280;1786;52.870;9.578;2023-06-24T08:53:26;101611.09;;;43.49;27.63
3544;BME280;1786;52.870;9.578;2023-06-24T08:55:54;101601.63;;;43.50;27.64
3544;BME280;1786;52.870;9.578;2023-06-24T08:58:22;101602.03;;;43.04;28.63
3544;BME280;1786;52.870;9.578;2023-06-24T09:00:49;101590.72;;;41.91;29.20
3544;BME280;1786;52.870;9.578;2023-06-24T09:03:15;101590.75;;;41.86;30.24
3544;BME280;1786;52.870;9.578;2023-06-24T09:05:42;101587.97;;;41.96;29.70
3544;BME280;1786;52.870;9.578;2023-06-24T09:08:11;101589.97;;;42.45;29.12
3544;BME280;1786;52.870;9.578;2023-06-24T09:10:37;101588.69;;;42.17;29.60
3544;BME280;1786;52.870;9.578;2023-06-24T09:13:06;101589.91;;;41.90;30.39
3544;BME280;1786;52.870;9.578;2023-06-24T09:15:37;101587.69;;;41.87;30.04
3544;BME280;1786;52.870;9.578;2023-06-24T09:18:05;101584.66;;;41.94;29.76
3544;BME280;1786;52.870;9.578;2023-06-24T09:20:32;101575.34;;;41.08;30.48
3544;BME280;1786;52.870;9.578;2023-06-24T09:23:02;101577.78;;;40.53;31.43
3544;BME280;1786;52.870;9.578;2023-06-24T09:25:29;101583.13;;;41.21;30.55
3544;BME280;1786;52.870;9.578;2023-06-24T09:28:03;101583.63;;;41.59;31.84
3544;BME280;1786;52.870;9.578;2023-06-24T09:30:30;101575.28;;;41.69;30.25
3544;BME280;1786;52.870;9.578;2023-06-24T09:32:58;101581.41;;;42.31;29.97
3544;BME280;1786;52.870;9.578;2023-06-24T09:35:25;101582.13;;;41.92;30.78
3544;BME280;1786;52.870;9.578;2023-06-24T09:37:54;101574.72;;;42.32;29.30
3544;BME280;1786;52.870;9.578;2023-06-24T09:40:22;101572.50;;;42.34;29.72
3544;BME280;1786;52.870;9.578;2023-06-24T09:42:55;101571.28;;;42.51;29.93
3544;BME280;1786;52.870;9.578;2023-06-24T09:45:27;101573.22;;;42.55;28.02
3544;BME280;1786;52.870;9.578;2023-06-24T09:47:57;101571.69;;;42.29;30.24
3544;BME280;1786;52.870;9.578;2023-06-24T09:50:27;101574.44;;;42.39;30.25
3544;BME280;1786;52.870;9.578;2023-06-24T09:52:56;101573.31;;;42.40;30.60
3544;BME280;1786;52.870;9.578;2023-06-24T09:55:23;101580.16;;;42.53;29.29
3544;BME280;1786;52.870;9.578;2023-06-24T09:57:52;101582.84;;;42.68;29.59
3544;BME280;1786;52.870;9.578;2023-06-24T10:00:20;101578.59;;;42.76;29.25
3544;BME280;1786;52.870;9.578;2023-06-24T10:02:47;101566.25;;;42.58;28.48
3544;BME280;1786;52.870;9.578;2023-06-24T10:05:15;101566.88;;;42.84;29.26
3544;BME280;1786;52.870;9.578;2023-06-24T10:07:43;101555.31;;;42.72;28.61
3544;BME280;1786;52.870;9.578;2023-06-24T10:10:11;101549.53;;;42.13;30.44
3544;BME280;1786;52.870;9.578;2023-06-24T10:12:38;101545.53;;;42.40;29.76
3544;BME280;1786;52.870;9.578;2023-06-24T10:15:05;101544.31;;;42.51;29.64
3544;BME280;1786;52.870;9.578;2023-06-24T10:17:33;101544.44;;;43.10;30.14
3544;BME280;1786;52.870;9.578;2023-06-24T10:20:04;101543.00;;;42.83;29.13
3544;BME280;1786;52.870;9.578;2023-06-24T10:22:32;101538.75;;;42.51;29.29
3544;BME280;1786;52.870;9.578;2023-06-24T10:25:00;101539.34;;;42.48;30.60
3544;BME280;1786;52.870;9.578;2023-06-24T10:27:29;101540.00;;;43.04;29.71
3544;BME280;1786;52.870;9.578;2023-06-24T10:30:03;101536.50;;;42.93;27.79
3544;BME280;1786;52.870;9.578;2023-06-24T10:32:41;101537.66;;;42.52;29.17
3544;BME280;1786;52.870;9.578;2023-06-24T10:35:28;101538.44;;;42.13;29.99
3544;BME280;1786;52.870;9.578;2023-06-24T10:38:00;101520.13;;;42.12;28.20
3544;BME280;1786;52.870;9.578;2023-06-24T10:40:41;101523.13;;;42.61;28.17
3544;BME280;1786;52.870;9.578;2023-06-24T10:43:29;101517.47;;;42.71;30.11
3544;BME280;1786;52.870;9.578;2023-06-24T10:45:57;101523.09;;;42.66;29.94
3544;BME280;1786;52.870;9.578;2023-06-24T10:48:25;101515.16;;;42.49;30.20
3544;BME280;1786;52.870;9.578;2023-06-24T10:50:52;101511.28;;;42.00;28.81
3544;BME280;1786;52.870;9.578;2023-06-24T10:53:18;101502.91;;;41.30;30.03
3544;BME280;1786;52.870;9.578;2023-06-24T10:55:45;101511.31;;;41.95;29.73
3544;BME280;1786;52.870;9.578;2023-06-24T10:58:14;101520.41;;;42.55;29.44
3544;BME280;1786;52.870;9.578;2023-06-24T11:00:43;101510.78;;;42.43;29.73
3544;BME280;1786;52.870;9.578;2023-06-24T11:03:16;101509.41;;;42.35;29.96
3544;BME280;1786;52.870;9.578;2023-06-24T11:05:46;101512.34;;;42.88;29.24
3544;BME280;1786;52.870;9.578;2023-06-24T11:08:13;101512.75;;;43.35;29.21
3544;BME280;1786;52.870;9.578;2023-06-24T11:10:47;101508.00;;;43.35;28.25
3544;BME280;1786;52.870;9.578;2023-06-24T11:13:15;101501.06;;;43.04;29.62
3544;BME280;1786;52.870;9.578;2023-06-24T11:15:42;101498.44;;;42.88;28.91
3544;BME280;1786;52.870;9.578;2023-06-24T11:18:10;101496.44;;;42.94;29.11
3544;BME280;1786;52.870;9.578;2023-06-24T11:20:38;101490.53;;;43.00;29.66
3544;BME280;1786;52.870;9.578;2023-06-24T11:23:09;101493.72;;;42.89;28.91
3544;BME280;1786;52.870;9.578;2023-06-24T11:25:41;101489.81;;;43.19;28.31
3544;BME280;1786;52.870;9.578;2023-06-24T11:28:17;101493.00;;;43.07;28.47
3544;BME280;1786;52.870;9.578;2023-06-24T11:30:48;101498.28;;;42.35;29.47
3544;BME280;1786;52.870;9.578;2023-06-24T11:33:26;101497.63;;;42.53;28.19
3544;BME280;1786;52.870;9.578;2023-06-24T11:35:53;101490.53;;;42.37;29.32
3544;BME280;1786;52.870;9.578;2023-06-24T11:38:20;101488.56;;;42.38;28.38
3544;BME280;1786;52.870;9.578;2023-06-24T11:40:48;101474.31;;;41.40;29.73
3544;BME280;1786;52.870;9.578;2023-06-24T11:43:14;101483.41;;;41.66;29.46
3544;BME280;1786;52.870;9.578;2023-06-24T11:45:41;101481.00;;;41.39;30.79
3544;BME280;1786;52.870;9.578;2023-06-24T11:48:08;101483.09;;;41.72;29.31
3544;BME280;1786;52.870;9.578;2023-06-24T11:50:35;101479.25;;;41.58;30.07
3544;BME280;1786;52.870;9.578;2023-06-24T11:53:02;101470.53;;;41.10;30.46
3544;BME280;1786;52.870;9.578;2023-06-24T11:55:31;101476.31;;;41.99;30.41
3544;BME280;1786;52.870;9.578;2023-06-24T11:58:01;101483.75;;;42.48;28.83
3544;BME280;1786;52.870;9.578;2023-06-24T12:00:40;101474.44;;;42.97;29.03
3544;BME280;1786;52.870;9.578;2023-06-24T12:03:09;101480.06;;;43.16;29.31
3544;BME280;1786;52.870;9.578;2023-06-24T12:05:39;101476.09;;;42.98;27.59
3544;BME280;1786;52.870;9.578;2023-06-24T12:08:13;101474.50;;;42.92;30.00
3544;BME280;1786;52.870;9.578;2023-06-24T12:10:44;101479.34;;;42.76;28.27
3544;BME280;1786;52.870;9.578;2023-06-24T12:13:12;101474.22;;;42.20;29.01
3544;BME280;1786;52.870;9.578;2023-06-24T12:15:39;101471.44;;;42.20;29.39
3544;BME280;1786;52.870;9.578;2023-06-24T12:18:06;101468.00;;;42.39;29.20
3544;BME280;1786;52.870;9.578;2023-06-24T12:20:34;101468.94;;;42.19;29.96
3544;BME280;1786;52.870;9.578;2023-06-24T12:23:05;101466.00;;;42.05;27.59
3544;BME280;1786;52.870;9.578;2023-06-24T12:25:32;101464.66;;;41.97;31.15
3544;BME280;1786;52.870;9.578;2023-06-24T12:27:59;101467.34;;;42.12;29.13
3544;BME280;1786;52.870;9.578;2023-06-24T12:30:27;101462.97;;;42.01;28.68
3544;BME280;1786;52.870;9.578;2023-06-24T12:32:54;101457.19;;;42.32;29.24
3544;BME280;1786;52.870;9.578;2023-06-24T12:35:22;101460.88;;;41.72;29.07
3544;BME280;1786;52.870;9.578;2023-06-24T12:37:52;101459.69;;;41.89;29.69
3544;BME280;1786;52.870;9.578;2023-06-24T12:40:19;101459.03;;;41.53;30.27
3544;BME280;1786;52.870;9.578;2023-06-24T12:42:46;101461.31;;;42.00;29.81
3544;BME280;1786;52.870;9.578;2023-06-24T12:45:13;101456.78;;;42.14;29.16
3544;BME280;1786;52.870;9.578;2023-06-24T12:47:40;101451.91;;;42.35;28.37
3544;BME280;1786;52.870;9.578;2023-06-24T12:50:07;101454.69;;;42.30;28.59
3544;BME280;1786;52.870;9.578;2023-06-24T12:52:36;101453.22;;;42.43;28.54
3544;BME280;1786;52.870;9.578;2023-06-24T12:55:03;101457.19;;;42.32;28.25
3544;BME280;1786;52.870;9.578;2023-06-24T12:57:30;101449.91;;;41.42;28.75
3544;BME280;1786;52.870;9.578;2023-06-24T12:59:57;101448.13;;;41.71;29.77
3544;BME280;1786;52.870;9.578;2023-06-24T13:02:24;101458.16;;;42.17;28.57
3544;BME280;1786;52.870;9.578;2023-06-24T13:04:51;101455.50;;;42.36;29.80
3544;BME280;1786;52.870;9.578;2023-06-24T13:07:18;101456.06;;;42.33;29.67
3544;BME280;1786;52.870;9.578;2023-06-24T13:09:45;101450.31;;;42.24;29.29
3544;BME280;1786;52.870;9.578;2023-06-24T13:12:12;101448.13;;;42.16;28.74
3544;BME280;1786;52.870;9.578;2023-06-24T13:14:38;101446.53;;;42.49;28.96
3544;BME280;1786;52.870;9.578;2023-06-24T13:17:05;101451.19;;;42.54;29.12
3544;BME280;1786;52.870;9.578;2023-06-24T13:19:32;101451.03;;;42.40;27.74
3544;BME280;1786;52.870;9.578;2023-06-24T13:21:59;101449.66;;;41.93;28.75